Impacts TAF Board
For situational awareness. Not to be used for flight planning purposes.
IDs:

KGKY - Arlington Muni, TX, US

Issued at 2106 UTC 21 May 2022
Updated at 2254 UTC 21 May 2022
Potential Impact None Slight Moderate High
Time2153Z 21/23Z 22/00Z 22/01Z 22/02Z 22/03Z 22/04Z 22/05Z 22/06Z 22/07Z 22/08Z 22/09Z 22/10Z 22/11Z>>
Type OBS PRVL PRVL PRVL PRVL PRVL PRVL PRVL PRVL PRVL PRVL PRVL PRVL PRVL
VIS 10 >6 >6 >6 >6 >6 >6 >6 >6 >6 >6 >6 >6 >6
CIG -- 35 35 18 18 18 18 25 25 25 25 25 25 25
Cover CLR BKN BKN BKN BKN BKN BKN BKN BKN BKN BKN BKN BKN BKN
FltCat VFR VFR VFR MVFR MVFR MVFR MVFR MVFR MVFR MVFR MVFR MVFR MVFR MVFR
WX -- VCTS VCTS VCSH VCSH VCSH VCSH -- -- -- -- -- -- --
WDir 330 340 340 350 350 350 350 10 10 10 10 10 10 10
WSpd 16 17 17 15 15 15 15 20 20 20 20 20 20 20
WGst 25 -- -- 25 25 25 25 -- -- -- -- -- -- --
WSHgt -- -- -- -- -- -- -- -- -- -- -- -- -- --
WSDir -- -- -- -- -- -- -- -- -- -- -- -- -- --
WSSpd -- -- -- -- -- -- -- -- -- -- -- -- -- --
Raw TAF
KGKY 212106Z 2121/2218 32015KT P6SM BKN060
  FM212200 34017KT P6SM VCTS SCT027CB BKN035
  FM220100 35015G25KT P6SM VCSH BKN018
  FM220500 01020KT P6SM BKN025


Raw METAR
KGKY 212153Z 33016G25KT 10SM CLR 28/18 A2988 RMK AO2 LTG DSNT SW SLP109 T02830183
KGKY 212053Z 32011KT 10SM BKN050 31/21 A2988 RMK AO2 SLP106 T03110206 53001
KGKY 211953Z 10SM BKN055 33/20 A2987 RMK AO2 SLP104 T03280200

METAR Board
Radar Display
Forecast Discussion
For situational awareness. Not to be used for flight planning purposes.